Time;durP1;ratioP1;P1;durP2;ratioP2;P2;SDS_P1;SDS_P2;PMS_P1;PMS_P2;Temp;Humidity;BMP_temperature;BMP_pressure;BME280_temperature;BME280_humidity;BME280_pressure;Samples;Min_cycle;Max_cycle;Signal;HPM_P1;HPM_P2
2022/03/22 00:04:21;;;;;;;;;;;;;;;21.63;28.50;96942.44;10471441;28;1853;-41
2022/03/22 00:09:21;;;;;;;;;;;;;;;21.69;28.47;96940.63;10476294;28;1951;-39
2022/03/22 00:14:23;;;;;;;;;;;;;;;21.68;28.38;96944.28;10474602;28;1773;-38
2022/03/22 00:19:24;;;;;;;;;;;;;;;21.64;28.38;96940.56;10471508;28;1888;-40
2022/03/22 00:24:24;;;;;;;;;;;;;;;21.68;28.36;96931.09;10468810;28;1820;-39
2022/03/22 00:29:24;;;;;;;;;;;;;;;21.64;28.35;96940.56;10472714;28;2179;-42
2022/03/22 00:34:26;;;;;;;;;;;;;;;21.67;28.32;96938.25;10483962;28;1876;-38
2022/03/22 00:39:27;;;;;;;;;;;;;;;21.65;28.25;96942.97;10477029;28;1828;-39
2022/03/22 00:44:27;;;;;;;;;;;;;;;21.65;28.26;96940.34;10479302;28;2004;-38
2022/03/22 00:49:27;;;;;;;;;;;;;;;21.64;28.07;96937.94;10467781;28;1914;-38
2022/03/22 00:54:28;;;;;;;;;;;;;;;21.61;28.21;96936.59;10524653;22;3524;-53
2022/03/22 01:04:47;;;;;;;;;;;;;;;21.62;27.79;96937.38;10490872;28;2058;-53
2022/03/22 01:09:48;;;;;;;;;;;;;;;21.58;27.98;96938.94;10486429;28;2005;-53
2022/03/22 01:14:50;;;;;;;;;;;;;;;21.61;27.76;96941.09;10502628;28;1800;-55
2022/03/22 01:19:51;;;;;;;;;;;;;;;21.58;27.68;96938.94;10487536;28;1929;-55
2022/03/22 01:24:52;;;;;;;;;;;;;;;21.59;27.62;96933.44;10488812;28;2036;-54
2022/03/22 01:29:52;;;;;;;;;;;;;;;21.62;27.69;96929.47;10480199;28;1954;-51
2022/03/22 01:34:53;;;;;;;;;;;;;;;21.61;27.60;96926.06;10471274;28;2291;-53
2022/03/22 01:39:54;;;;;;;;;;;;;;;21.61;27.69;96919.97;10483507;28;1884;-54
2022/03/22 01:44:55;;;;;;;;;;;;;;;21.62;27.47;96926.84;10487121;28;1851;-55
2022/03/22 01:49:55;;;;;;;;;;;;;;;21.61;27.65;96927.91;10503046;28;1947;-55
2022/03/22 01:54:55;;;;;;;;;;;;;;;21.65;27.44;96915.78;10485046;28;1962;-54
2022/03/22 01:59:56;;;;;;;;;;;;;;;21.59;27.27;96907.03;10486432;28;1911;-51
2022/03/22 02:10:18;;;;;;;;;;;;;;;21.61;27.20;96914.69;10487978;28;1902;-53
2022/03/22 02:15:19;;;;;;;;;;;;;;;21.63;27.26;96907.31;10482244;28;2197;-53
2022/03/22 02:20:19;;;;;;;;;;;;;;;21.61;27.13;96904.16;10485295;28;1827;-51
2022/03/22 02:25:20;;;;;;;;;;;;;;;21.61;27.01;96890.94;10485719;28;1936;-52
2022/03/22 02:30:20;;;;;;;;;;;;;;;21.60;27.04;96894.63;10486243;28;2030;-53
2022/03/22 02:35:21;;;;;;;;;;;;;;;21.61;26.99;96896.22;10481293;28;1847;-52
2022/03/22 02:40:22;;;;;;;;;;;;;;;21.60;27.07;96902.53;10486870;28;1868;-53
2022/03/22 02:45:22;;;;;;;;;;;;;;;21.59;27.03;96895.69;10477763;28;1998;-50
2022/03/22 02:50:23;;;;;;;;;;;;;;;21.62;27.01;96895.97;10484741;28;1980;-50
2022/03/22 02:55:25;;;;;;;;;;;;;;;21.61;27.08;96906.78;10483255;28;2265;-50
2022/03/22 03:00:26;;;;;;;;;;;;;;;21.62;27.04;96905.72;10480623;28;1948;-49
2022/03/22 03:05:26;;;;;;;;;;;;;;;21.62;26.95;96905.72;10479497;28;1864;-54
2022/03/22 03:10:27;;;;;;;;;;;;;;;21.59;26.77;96900.97;10483101;28;1949;-52
2022/03/22 03:15:28;;;;;;;;;;;;;;;21.61;26.97;96901.50;10480959;28;1830;-51
2022/03/22 03:20:28;;;;;;;;;;;;;;;21.61;26.74;96914.69;10484798;28;1855;-52
2022/03/22 03:25:29;;;;;;;;;;;;;;;21.62;26.94;96906.53;10487069;28;1806;-54
2022/03/22 03:30:30;;;;;;;;;;;;;;;21.63;26.70;96912.59;10479413;28;1930;-53
2022/03/22 03:35:30;;;;;;;;;;;;;;;21.64;26.73;96922.09;10483979;28;1918;-52
2022/03/22 03:51:09;;;;;;;;;;;;;;;21.60;26.58;96931.56;10490557;28;1995;-52
2022/03/22 03:56:10;;;;;;;;;;;;;;;21.62;26.58;96924.19;10482711;28;1860;-55
2022/03/22 04:01:11;;;;;;;;;;;;;;;21.60;26.37;96929.72;10476886;28;2191;-50
2022/03/22 04:06:12;;;;;;;;;;;;;;;21.58;26.41;96923.91;10486383;28;1990;-53
2022/03/22 04:11:12;;;;;;;;;;;;;;;21.61;26.48;96925.25;10485916;28;2081;-53
2022/03/22 04:16:15;;;;;;;;;;;;;;;21.60;26.44;96927.09;10487815;28;1802;-53
2022/03/22 04:21:15;;;;;;;;;;;;;;;21.58;26.34;96915.19;10488591;28;1831;-56
2022/03/22 04:26:16;;;;;;;;;;;;;;;21.59;26.51;96922.88;10491429;28;1828;-50
2022/03/22 04:36:36;;;;;;;;;;;;;;;21.59;26.16;96922.06;10491920;28;1994;-54
2022/03/22 04:41:36;;;;;;;;;;;;;;;21.61;26.25;96917.34;10490427;28;2121;-54
2022/03/22 04:46:37;;;;;;;;;;;;;;;21.63;26.07;96921.31;10489137;28;2078;-53
2022/03/22 04:56:56;;;;;;;;;;;;;;;21.62;26.05;96930.28;10504271;28;1817;-52
2022/03/22 05:01:57;;;;;;;;;;;;;;;21.58;26.10;96944.22;10503615;28;1893;-50
2022/03/22 05:06:57;;;;;;;;;;;;;;;21.59;26.22;96948.47;10489673;28;1883;-53
2022/03/22 05:11:58;;;;;;;;;;;;;;;21.61;26.07;96941.09;10484775;28;1914;-52
2022/03/22 05:16:58;;;;;;;;;;;;;;;21.59;26.03;96953.72;10493128;28;1785;-52
2022/03/22 05:21:58;;;;;;;;;;;;;;;21.60;26.15;96957.94;10489284;28;1833;-56
2022/03/22 05:27:00;;;;;;;;;;;;;;;21.57;26.06;96958.47;10486717;28;1836;-50
2022/03/22 05:32:00;;;;;;;;;;;;;;;21.60;25.79;96953.47;10492412;28;1913;-51
2022/03/22 05:37:01;;;;;;;;;;;;;;;21.58;26.09;96960.03;10493781;28;2127;-52
2022/03/22 05:42:04;;;;;;;;;;;;;;;21.57;25.99;96961.09;10494621;28;1797;-54
2022/03/22 05:47:06;;;;;;;;;;;;;;;21.57;25.97;96963.75;10485408;28;2013;-50
2022/03/22 05:52:06;;;;;;;;;;;;;;;21.58;26.05;96962.69;10486899;28;1970;-55
2022/03/22 05:57:07;;;;;;;;;;;;;;;21.57;26.09;96969.03;10473012;28;2103;-54
2022/03/22 06:02:09;;;;;;;;;;;;;;;21.60;26.20;96968.50;10472917;28;2174;-55
2022/03/22 06:07:09;;;;;;;;;;;;;;;21.60;26.27;96957.94;10480966;28;1840;-55
2022/03/22 06:12:09;;;;;;;;;;;;;;;21.58;26.20;96958.22;10458882;28;1983;-55
2022/03/22 06:17:10;;;;;;;;;;;;;;;21.59;26.44;96964.28;10488472;28;1812;-53
2022/03/22 06:22:10;;;;;;;;;;;;;;;21.61;26.28;96965.63;10483689;28;2013;-52
2022/03/22 06:27:10;;;;;;;;;;;;;;;21.60;26.35;96974.59;10484239;28;1843;-55
2022/03/22 06:32:11;;;;;;;;;;;;;;;21.61;26.26;96972.75;10482758;28;1914;-55
2022/03/22 06:37:12;;;;;;;;;;;;;;;21.62;26.30;96979.59;10485252;28;1838;-52
2022/03/22 06:42:12;;;;;;;;;;;;;;;21.59;26.40;96980.13;10479641;28;1927;-52
2022/03/22 06:47:13;;;;;;;;;;;;;;;21.62;26.54;96985.69;10484212;28;1788;-53
2022/03/22 06:52:13;;;;;;;;;;;;;;;21.61;26.43;96980.66;10480671;28;1910;-54
2022/03/22 06:57:14;;;;;;;;;;;;;;;21.61;26.58;96992.03;10486044;28;1801;-51
2022/03/22 07:02:15;;;;;;;;;;;;;;;21.64;26.46;96993.34;10482212;28;2001;-53
2022/03/22 07:07:16;;;;;;;;;;;;;;;21.60;26.33;96989.59;10484230;28;1820;-55
2022/03/22 07:12:16;;;;;;;;;;;;;;;21.64;26.50;96993.34;10481066;28;1913;-56
2022/03/22 07:17:17;;;;;;;;;;;;;;;21.62;26.35;97001.50;10487166;28;1962;-55
2022/03/22 07:22:17;;;;;;;;;;;;;;;21.64;26.35;96998.63;10481193;28;1809;-54
2022/03/22 07:27:17;;;;;;;;;;;;;;;21.63;26.29;97002.31;10484761;28;2352;-51
2022/03/22 07:32:19;;;;;;;;;;;;;;;21.63;26.39;97005.75;10492758;28;1902;-56
2022/03/22 07:37:19;;;;;;;;;;;;;;;21.63;26.42;97007.59;10485822;28;1986;-53
2022/03/22 07:42:19;;;;;;;;;;;;;;;21.63;26.47;97004.97;10501684;28;1804;-53
2022/03/22 07:47:20;;;;;;;;;;;;;;;21.62;26.31;97012.06;10491283;28;1853;-54
2022/03/22 07:57:39;;;;;;;;;;;;;;;21.61;26.09;97009.69;10495634;28;2606;-55
2022/03/22 08:02:50;;;;;;;;;;;;;;;21.63;26.17;97010.25;10491452;28;1872;-55
2022/03/22 08:07:51;;;;;;;;;;;;;;;21.61;26.14;97007.06;10488681;28;1913;-52
2022/03/22 08:12:52;;;;;;;;;;;;;;;21.63;26.32;97020.78;10489009;28;1747;-54
2022/03/22 08:17:52;;;;;;;;;;;;;;;21.64;26.18;97014.44;10493947;28;2189;-52
2022/03/22 08:22:59;;;;;;;;;;;;;;;21.65;26.38;97010.78;10495440;22;2313;-49
2022/03/22 08:28:00;;;;;;;;;;;;;;;21.63;26.40;97015.50;10462596;28;1983;-49
2022/03/22 08:33:09;;;;;;;;;;;;;;;21.64;26.07;97007.34;10438392;28;1911;-48
2022/03/22 08:38:10;;;;;;;;;;;;;;;21.67;26.12;97011.31;10438283;28;1858;-51
2022/03/22 08:43:11;;;;;;;;;;;;;;;21.64;26.32;97009.97;10438149;28;1793;-50
2022/03/22 08:48:12;;;;;;;;;;;;;;;21.64;26.31;97009.19;10436088;28;1973;-48
2022/03/22 08:53:13;;;;;;;;;;;;;;;21.67;26.26;96998.13;10437793;28;1722;-47
2022/03/22 08:58:13;;;;;;;;;;;;;;;21.68;26.24;97005.00;10434685;28;1783;-47
2022/03/22 09:03:14;;;;;;;;;;;;;;;21.69;26.34;97006.59;10407046;28;1765;-48
2022/03/22 09:08:15;;;;;;;;;;;;;;;21.68;26.26;97005.00;10423522;28;2152;-54
2022/03/22 09:13:16;;;;;;;;;;;;;;;21.68;26.23;96999.72;10426198;28;1720;-47
2022/03/22 09:18:17;;;;;;;;;;;;;;;21.68;26.18;96994.44;10442063;28;1869;-50
2022/03/22 09:23:18;;;;;;;;;;;;;;;21.68;26.24;96997.06;10440670;28;1763;-49
2022/03/22 09:28:18;;;;;;;;;;;;;;;21.68;26.55;96997.06;10414828;28;2254;-50
2022/03/22 09:33:18;;;;;;;;;;;;;;;21.67;26.71;96998.13;10415033;28;1759;-49
2022/03/22 09:38:19;;;;;;;;;;;;;;;21.68;26.50;96991.78;10416143;28;1799;-51
2022/03/22 09:43:20;;;;;;;;;;;;;;;21.66;26.65;96989.41;10434628;28;1787;-46
2022/03/22 09:48:21;;;;;;;;;;;;;;;21.71;26.45;96991.31;10437606;28;1906;-46
2022/03/22 09:53:21;;;;;;;;;;;;;;;21.71;26.50;96980.75;10433784;28;1826;-46
2022/03/22 09:58:22;;;;;;;;;;;;;;;21.71;26.59;96978.91;10432550;28;1884;-45
2022/03/22 10:03:22;;;;;;;;;;;;;;;21.69;26.73;96981.00;10431632;28;1808;-51
2022/03/22 10:08:23;;;;;;;;;;;;;;;21.70;26.60;96977.31;10430143;28;1924;-47
2022/03/22 10:13:24;;;;;;;;;;;;;;;21.71;26.71;96981.56;10404021;28;1697;-48
2022/03/22 10:18:25;;;;;;;;;;;;;;;21.71;26.80;96980.75;10415704;28;1802;-49
2022/03/22 10:23:25;;;;;;;;;;;;;;;21.75;26.63;96972.09;10414926;28;1938;-50
2022/03/22 10:28:25;;;;;;;;;;;;;;;21.74;26.62;96970.47;10423374;28;1898;-47
2022/03/22 10:33:26;;;;;;;;;;;;;;;21.74;26.84;96967.84;10416415;28;1854;-48
2022/03/22 10:38:26;;;;;;;;;;;;;;;21.72;27.01;96969.16;10418720;28;1837;-46
2022/03/22 10:43:27;;;;;;;;;;;;;;;21.73;27.04;96970.75;10411070;28;1799;-49
2022/03/22 10:48:34;;;;;;;;;;;;;;;21.78;26.86;96968.16;10418730;28;1894;-49
2022/03/22 10:53:35;;;;;;;;;;;;;;;21.76;27.08;96959.69;10428135;28;1748;-50
2022/03/22 10:58:36;;;;;;;;;;;;;;;21.75;26.99;96948.34;10410014;28;1812;-50
2022/03/22 11:03:36;;;;;;;;;;;;;;;21.76;27.06;96959.69;10404569;28;1797;-46
2022/03/22 11:08:40;;;;;;;;;;;;;;;21.75;27.10;96950.16;10397468;28;1906;-48
2022/03/22 11:13:41;;;;;;;;;;;;;;;21.81;26.98;96941.25;10416607;28;1886;-46
2022/03/22 11:18:42;;;;;;;;;;;;;;;21.82;26.82;96942.88;10414017;28;1822;-49
2022/03/22 11:23:44;;;;;;;;;;;;;;;21.79;26.95;96938.06;10426565;28;1967;-47
2022/03/22 11:28:45;;;;;;;;;;;;;;;21.80;26.94;96929.88;10411963;28;1934;-46
2022/03/22 11:39:05;;;;;;;;;;;;;;;21.81;26.99;96930.69;10417742;28;1799;-47
2022/03/22 11:44:10;;;;;;;;;;;;;;;21.80;27.02;96926.47;10408627;28;1700;-46
2022/03/22 11:49:11;;;;;;;;;;;;;;;21.79;26.90;96920.38;10426196;28;1914;-50
2022/03/22 11:54:11;;;;;;;;;;;;;;;21.80;26.83;96906.13;10432523;28;1815;-48
2022/03/22 11:59:14;;;;;;;;;;;;;;;21.83;26.96;96903.03;10428829;28;1779;-49
2022/03/22 12:04:15;;;;;;;;;;;;;;;21.83;26.80;96908.31;10432903;28;1720;-48
2022/03/22 12:09:16;;;;;;;;;;;;;;;21.83;26.77;96902.22;10420763;28;1922;-49
2022/03/22 12:14:26;;;;;;;;;;;;;;;21.82;27.01;96900.66;10432014;28;1761;-49
2022/03/22 12:19:27;;;;;;;;;;;;;;;21.81;27.07;96899.84;10412795;28;1827;-49
2022/03/22 12:24:32;;;;;;;;;;;;;;;21.83;27.12;96904.88;10429902;28;1829;-50
2022/03/22 12:29:39;;;;;;;;;;;;;;;21.80;26.92;96892.16;10436182;28;1922;-51
2022/03/22 12:34:41;;;;;;;;;;;;;;;21.74;26.98;96888.66;10439116;28;1765;-49
2022/03/22 12:39:43;;;;;;;;;;;;;;;21.73;27.46;96895.00;10432133;28;1926;-51
2022/03/22 12:44:43;;;;;;;;;;;;;;;21.72;27.29;96890.75;10420196;28;1802;-49
2022/03/22 12:49:44;;;;;;;;;;;;;;;21.79;27.09;96886.06;10436209;28;1914;-50
2022/03/22 12:54:44;;;;;;;;;;;;;;;21.76;27.08;96875.25;10428984;28;1739;-50
2022/03/22 12:59:45;;;;;;;;;;;;;;;21.73;27.19;96871.25;10414507;28;1910;-48
2022/03/22 13:04:49;;;;;;;;;;;;;;;21.74;27.31;96866.78;10437953;28;1835;-48
2022/03/22 13:15:12;;;;;;;;;;;;;;;21.74;27.43;96856.22;10403771;28;1809;-47
2022/03/22 13:20:21;;;;;;;;;;;;;;;21.77;27.51;96860.97;10417418;28;1926;-47
2022/03/22 13:25:30;;;;;;;;;;;;;;;21.77;27.32;96847.78;10390126;28;1809;-51
2022/03/22 13:30:31;;;;;;;;;;;;;;;21.74;27.63;96841.16;10436087;28;1918;-47
2022/03/22 13:35:32;;;;;;;;;;;;;;;21.77;27.40;96834.59;10431971;28;1696;-49
2022/03/22 13:40:36;;;;;;;;;;;;;;;21.82;27.53;96838.06;10406453;28;1918;-50
2022/03/22 13:45:41;;;;;;;;;;;;;;;21.80;27.38;96831.44;10418326;28;1970;-49
2022/03/22 13:50:42;;;;;;;;;;;;;;;21.78;27.38;96831.69;10417193;28;1918;-49
2022/03/22 13:55:44;;;;;;;;;;;;;;;21.81;27.49;96825.94;10426074;28;1850;-52
2022/03/22 14:00:45;;;;;;;;;;;;;;;21.80;27.67;96820.91;10436224;28;2041;-48
2022/03/22 14:05:45;;;;;;;;;;;;;;;21.79;27.37;96814.00;10421281;28;1871;-48
2022/03/22 14:10:46;;;;;;;;;;;;;;;21.79;27.62;96819.28;10414865;28;1926;-51
2022/03/22 14:15:47;;;;;;;;;;;;;;;21.78;27.59;96810.56;10411137;28;1766;-51
2022/03/22 14:20:48;;;;;;;;;;;;;;;21.78;27.55;96815.06;10433553;28;1868;-48
2022/03/22 14:25:48;;;;;;;;;;;;;;;21.75;27.57;96805.00;10471778;22;2286;-73
2022/03/22 14:30:49;;;;;;;;;;;;;;;21.76;27.55;96806.63;10528686;28;1976;-71
2022/03/22 14:35:57;;;;;;;;;;;;;;;21.74;27.67;96803.44;10525147;28;1912;-69
2022/03/22 14:41:22;;;;;;;;;;;;;;;21.75;27.71;96805.00;10534067;28;1902;-71
2022/03/22 14:46:23;;;;;;;;;;;;;;;21.76;27.48;96807.38;10541191;28;2207;-71
2022/03/22 15:02:01;;;;;;;;;;;;;;;21.76;27.55;96793.41;10539554;28;1908;-71
2022/03/22 15:07:02;;;;;;;;;;;;;;;21.74;27.49;96787.59;10543235;28;1951;-71
2022/03/22 15:12:03;;;;;;;;;;;;;;;21.75;27.89;96783.91;10546717;28;1969;-71
2022/03/22 15:17:04;;;;;;;;;;;;;;;21.77;27.70;96784.44;10535578;28;1921;-71
2022/03/22 15:22:05;;;;;;;;;;;;;;;21.77;27.34;96776.53;10551403;28;1832;-71
2022/03/22 15:27:08;;;;;;;;;;;;;;;21.76;27.29;96782.88;10531505;28;1876;-71
2022/03/22 15:32:08;;;;;;;;;;;;;;;21.78;27.45;96778.13;10541734;28;2139;-71
2022/03/22 15:37:09;;;;;;;;;;;;;;;21.75;27.63;96779.44;10542996;28;1850;-72
2022/03/22 15:42:10;;;;;;;;;;;;;;;21.77;27.35;96773.88;10546003;28;1846;-73
2022/03/22 15:47:10;;;;;;;;;;;;;;;21.76;27.40;96782.88;10539906;28;2222;-72
2022/03/22 15:52:11;;;;;;;;;;;;;;;21.75;27.31;96768.88;10539516;28;1971;-73
2022/03/22 15:57:11;;;;;;;;;;;;;;;21.77;27.34;96777.31;10553505;28;1809;-72
2022/03/22 16:02:11;;;;;;;;;;;;;;;21.77;27.20;96773.88;10555914;28;1981;-72
2022/03/22 16:07:12;;;;;;;;;;;;;;;21.78;27.39;96775.50;10557901;28;1837;-71
2022/03/22 16:12:12;;;;;;;;;;;;;;;21.76;27.22;96780.22;10544826;28;1894;-70
2022/03/22 16:17:14;;;;;;;;;;;;;;;21.76;27.24;96773.09;10556670;28;1886;-71
2022/03/22 16:22:14;;;;;;;;;;;;;;;21.76;27.33;96769.66;10529133;28;2208;-71
2022/03/22 16:27:15;;;;;;;;;;;;;;;21.76;27.14;96774.94;10528916;28;1862;-71
2022/03/22 16:32:16;;;;;;;;;;;;;;;21.74;27.18;96777.81;10501771;22;2416;-55
2022/03/22 16:37:16;;;;;;;;;;;;;;;21.75;27.20;96779.44;10453676;28;1860;-53
2022/03/22 16:42:19;;;;;;;;;;;;;;;21.74;27.34;96782.34;10433547;28;1876;-55
2022/03/22 16:47:19;;;;;;;;;;;;;;;21.74;27.33;96783.09;10429370;28;1806;-55
2022/03/22 16:52:20;;;;;;;;;;;;;;;21.78;27.19;96780.75;10432107;28;1973;-55
2022/03/22 16:57:21;;;;;;;;;;;;;;;21.78;27.07;96792.09;10431710;28;1902;-54
2022/03/22 17:02:21;;;;;;;;;;;;;;;21.76;27.33;96788.16;10433208;28;1917;-55
2022/03/22 17:07:22;;;;;;;;;;;;;;;21.79;27.31;96792.91;10435345;28;1845;-55
2022/03/22 17:12:22;;;;;;;;;;;;;;;21.77;27.53;96792.34;10428840;28;1969;-54
2022/03/22 17:17:22;;;;;;;;;;;;;;;21.77;27.35;96787.09;10436524;28;1905;-52
2022/03/22 17:22:25;;;;;;;;;;;;;;;21.78;27.61;96794.72;10430090;28;1844;-53
2022/03/22 17:27:25;;;;;;;;;;;;;;;21.86;27.46;96804.06;10423775;28;1911;-56
2022/03/22 17:32:26;;;;;;;;;;;;;;;21.88;28.48;96801.16;10430234;28;1914;-56
2022/03/22 17:37:27;;;;;;;;;;;;;;;21.85;27.55;96794.53;10433117;28;1853;-55
2022/03/22 17:42:27;;;;;;;;;;;;;;;21.80;27.60;96805.06;10449102;28;1900;-54
2022/03/22 17:47:28;;;;;;;;;;;;;;;21.81;27.54;96811.91;10440128;28;1863;-54
2022/03/22 17:52:28;;;;;;;;;;;;;;;21.78;27.66;96807.16;10433387;28;1918;-54
2022/03/22 17:57:29;;;;;;;;;;;;;;;21.81;27.64;96809.28;10433606;28;1880;-56
2022/03/22 18:02:34;;;;;;;;;;;;;;;21.88;27.40;96815.16;10449854;28;1866;-53
2022/03/22 18:07:34;;;;;;;;;;;;;;;21.96;28.06;96806.75;10428995;28;1780;-55
2022/03/22 18:12:35;;;;;;;;;;;;;;;21.91;28.51;96808.59;10432845;28;1963;-55
2022/03/22 18:17:36;;;;;;;;;;;;;;;21.93;28.59;96807.25;10435883;28;1776;-51
2022/03/22 18:22:36;;;;;;;;;;;;;;;21.91;28.91;96812.00;10433432;28;1819;-51
2022/03/22 18:27:37;;;;;;;;;;;;;;;21.94;28.66;96808.06;10431264;28;1797;-51
2022/03/22 18:32:39;;;;;;;;;;;;;;;21.91;28.71;96819.91;10430043;28;1969;-53
2022/03/22 18:37:40;;;;;;;;;;;;;;;21.83;29.16;96815.13;10438262;28;1769;-53
2022/03/22 18:42:41;;;;;;;;;;;;;;;21.82;28.48;96816.97;10431099;28;1847;-54
2022/03/22 18:47:43;;;;;;;;;;;;;;;21.77;28.29;96813.47;10438440;28;1739;-54
2022/03/22 18:52:44;;;;;;;;;;;;;;;21.77;27.98;96818.75;10432813;28;1975;-55
2022/03/22 18:57:44;;;;;;;;;;;;;;;21.76;27.86;96819.81;10410542;28;1933;-55
2022/03/22 19:02:45;;;;;;;;;;;;;;;21.75;27.80;96821.66;10427368;28;1758;-54
2022/03/22 19:07:45;;;;;;;;;;;;;;;21.77;27.90;96808.19;10419556;28;1829;-56
2022/03/22 19:12:46;;;;;;;;;;;;;;;21.71;27.91;96801.31;10425353;28;1975;-54
2022/03/22 19:17:55;;;;;;;;;;;;;;;21.73;27.69;96807.91;10431445;28;1862;-53
2022/03/22 19:22:55;;;;;;;;;;;;;;;21.71;27.64;96815.28;10433992;28;1821;-54
2022/03/22 19:27:56;;;;;;;;;;;;;;;21.68;27.87;96807.06;10443122;28;1781;-55
2022/03/22 19:33:09;;;;;;;;;;;;;;;21.64;27.92;96809.44;10423215;28;1914;-52
2022/03/22 19:38:13;;;;;;;;;;;;;;;21.70;27.91;96818.19;10441303;28;1874;-54
2022/03/22 19:43:14;;;;;;;;;;;;;;;21.65;28.11;96818.97;10440444;28;1799;-53
2022/03/22 19:48:16;;;;;;;;;;;;;;;21.66;27.95;96817.88;10438630;28;1939;-54
2022/03/22 19:53:16;;;;;;;;;;;;;;;21.68;28.00;96813.16;10438496;28;1953;-53
2022/03/22 19:58:17;;;;;;;;;;;;;;;21.70;28.11;96818.19;10450811;28;1823;-54
2022/03/22 20:03:21;;;;;;;;;;;;;;;21.68;27.85;96813.16;10455545;28;1938;-55
2022/03/22 20:08:21;;;;;;;;;;;;;;;21.71;27.89;96815.28;10442389;28;1988;-54
2022/03/22 20:13:22;;;;;;;;;;;;;;;21.72;27.77;96816.09;10446005;28;1797;-55
2022/03/22 20:18:22;;;;;;;;;;;;;;;21.71;27.61;96815.28;10437322;28;1873;-54
2022/03/22 20:23:23;;;;;;;;;;;;;;;21.74;27.31;96819.28;10437445;28;1875;-54
2022/03/22 20:28:24;;;;;;;;;;;;;;;21.74;27.18;96812.13;10440467;28;1929;-53
2022/03/22 20:33:25;;;;;;;;;;;;;;;21.75;27.14;96818.22;10435315;28;1749;-54
2022/03/22 20:38:25;;;;;;;;;;;;;;;21.74;27.46;96819.28;10450971;28;1778;-56
2022/03/22 20:43:27;;;;;;;;;;;;;;;21.76;27.49;96822.44;10440654;28;1872;-54
2022/03/22 20:48:29;;;;;;;;;;;;;;;21.78;27.23;96823.00;10442228;28;1909;-55
2022/03/22 20:53:30;;;;;;;;;;;;;;;21.74;27.29;96817.41;10432981;28;1760;-53
2022/03/22 21:03:50;;;;;;;;;;;;;;;21.76;27.45;96817.19;10445242;28;1698;-55
2022/03/22 21:08:50;;;;;;;;;;;;;;;21.74;27.40;96822.69;10427071;28;1913;-55
2022/03/22 21:13:51;;;;;;;;;;;;;;;21.75;27.66;96821.66;10428319;28;1744;-54
2022/03/22 21:18:52;;;;;;;;;;;;;;;21.74;27.49;96814.78;10422662;28;1658;-54
2022/03/22 21:23:52;;;;;;;;;;;;;;;21.73;27.54;96809.75;10435855;28;1794;-55
2022/03/22 21:28:53;;;;;;;;;;;;;;;21.74;27.47;96814.00;10435047;28;1957;-56
2022/03/22 21:33:54;;;;;;;;;;;;;;;21.75;27.73;96811.09;10433002;28;1813;-54
2022/03/22 21:38:54;;;;;;;;;;;;;;;21.76;27.69;96806.63;10433205;28;1651;-54
2022/03/22 21:43:55;;;;;;;;;;;;;;;21.78;27.38;96809.81;10432541;28;1885;-53
2022/03/22 21:48:56;;;;;;;;;;;;;;;21.72;27.36;96810.81;10423572;28;1942;-52
2022/03/22 21:53:57;;;;;;;;;;;;;;;21.75;27.18;96802.38;10431221;28;2065;-56
2022/03/22 21:58:58;;;;;;;;;;;;;;;21.77;27.26;96808.19;10423836;28;1821;-55
2022/03/22 22:03:58;;;;;;;;;;;;;;;21.75;27.08;96803.19;10433233;28;1770;-55
2022/03/22 22:08:58;;;;;;;;;;;;;;;21.76;27.07;96790.78;10429821;28;1977;-55
2022/03/22 22:13:59;;;;;;;;;;;;;;;21.78;27.24;96786.03;10426953;28;1827;-56
2022/03/22 22:18:59;;;;;;;;;;;;;;;21.76;27.13;96793.41;10433896;28;1832;-54
2022/03/22 22:24:00;;;;;;;;;;;;;;;21.74;27.20;96793.66;10428775;28;1920;-55
2022/03/22 22:29:00;;;;;;;;;;;;;;;21.77;26.76;96793.16;10418548;28;1914;-56
2022/03/22 22:34:01;;;;;;;;;;;;;;;21.76;26.78;96794.19;10421345;28;1846;-56
2022/03/22 22:39:01;;;;;;;;;;;;;;;21.76;26.72;96788.16;10433913;28;2089;-54
2022/03/22 22:44:01;;;;;;;;;;;;;;;21.76;26.86;96783.63;10428288;28;2030;-55
2022/03/22 22:49:02;;;;;;;;;;;;;;;21.79;26.77;96784.97;10434774;28;1910;-54
2022/03/22 22:54:03;;;;;;;;;;;;;;;21.77;26.82;96784.44;10430266;28;1782;-54
2022/03/22 22:59:03;;;;;;;;;;;;;;;21.79;26.54;96780.50;10438093;28;1962;-53
2022/03/22 23:04:08;;;;;;;;;;;;;;;21.79;26.67;96777.88;10429746;28;1923;-55
2022/03/22 23:14:29;;;;;;;;;;;;;;;21.78;26.30;96778.91;10449114;28;1921;-55
2022/03/22 23:19:30;;;;;;;;;;;;;;;21.79;26.21;96780.50;10429159;28;1831;-54
2022/03/22 23:24:30;;;;;;;;;;;;;;;21.78;26.42;96783.41;10427182;28;1866;-55
2022/03/22 23:29:31;;;;;;;;;;;;;;;21.78;26.35;96780.75;10433436;28;1985;-52
2022/03/22 23:34:32;;;;;;;;;;;;;;;21.78;26.44;96791.31;10429234;28;1901;-54
2022/03/22 23:39:32;;;;;;;;;;;;;;;21.75;26.52;96783.91;10433082;28;1899;-51
2022/03/22 23:44:33;;;;;;;;;;;;;;;21.79;26.23;96785.78;10431852;28;1853;-54
2022/03/22 23:49:33;;;;;;;;;;;;;;;21.76;26.31;96775.72;10427073;28;1914;-54
2022/03/22 23:54:34;;;;;;;;;;;;;;;21.82;25.97;96774.72;10441941;28;1869;-56
2022/03/22 23:59:34;;;;;;;;;;;;;;;21.78;26.05;96778.13;10431380;28;1818;-54
